Time;durP1;ratioP1;P1;durP2;ratioP2;P2;SDS_P1;SDS_P2;PMS_P1;PMS_P2;Temp;Humidity;BMP_temperature;BMP_pressure;BME280_temperature;BME280_humidity;BME280_pressure;Samples;Min_cycle;Max_cycle;Signal;HPM_P1;HPM_P2
2023/03/22 00:02:12;;;;;;;7.97;5.10;;;;;;;7.75;100.00;93757.66;5066739;28;20045;-61
2023/03/22 00:04:41;;;;;;;8.30;4.80;;;;;;;7.91;100.00;93759.88;5059690;28;20358;-61
2023/03/22 00:07:07;;;;;;;8.73;4.90;;;;;;;8.02;100.00;93762.53;5061399;28;20437;-61
2023/03/22 00:09:35;;;;;;;8.50;5.00;;;;;;;8.07;100.00;93757.41;5069111;28;20385;-64
2023/03/22 00:12:02;;;;;;;7.43;4.60;;;;;;;8.11;100.00;93757.34;5058159;28;20440;-65
2023/03/22 00:14:29;;;;;;;9.10;4.80;;;;;;;7.74;100.00;93751.38;5058910;28;20067;-61
2023/03/22 00:16:56;;;;;;;8.57;5.13;;;;;;;7.88;100.00;93747.78;5071673;28;20048;-64
2023/03/22 00:19:25;;;;;;;7.82;4.90;;;;;;;8.05;100.00;93748.03;5058106;28;20039;-61
2023/03/22 00:21:52;;;;;;;6.83;4.97;;;;;;;8.09;100.00;93740.56;5071978;28;20055;-62
2023/03/22 00:24:20;;;;;;;9.45;5.50;;;;;;;8.13;100.00;93742.13;5056461;28;20040;-61
2023/03/22 00:26:46;;;;;;;7.90;5.45;;;;;;;8.17;100.00;93747.56;5071918;28;20489;-62
2023/03/22 00:29:13;;;;;;;7.65;5.13;;;;;;;8.02;100.00;93737.91;5071047;28;20332;-63
2023/03/22 00:31:40;;;;;;;8.60;5.38;;;;;;;7.98;100.00;93744.19;5071795;28;20446;-61
2023/03/22 00:34:07;;;;;;;8.10;4.77;;;;;;;7.97;100.00;93748.09;5069842;28;20049;-63
2023/03/22 00:36:36;;;;;;;5.97;4.15;;;;;;;8.02;100.00;93741.44;5067571;28;20044;-61
2023/03/22 00:39:03;;;;;;;8.15;4.60;;;;;;;8.01;100.00;93737.16;5063573;28;20047;-61
2023/03/22 00:41:30;;;;;;;7.22;4.45;;;;;;;7.98;100.00;93733.25;5058094;28;20032;-61
2023/03/22 00:43:56;;;;;;;7.15;4.22;;;;;;;7.94;100.00;93735.25;5071093;28;20043;-59
2023/03/22 00:46:23;;;;;;;7.57;4.37;;;;;;;7.89;100.00;93743.88;5056464;28;20489;-62
2023/03/22 00:48:50;;;;;;;6.20;4.25;;;;;;;7.82;100.00;93733.00;5071355;28;20040;-61
2023/03/22 00:51:17;;;;;;;7.70;4.32;;;;;;;7.81;100.00;93734.19;5060675;28;20362;-64
2023/03/22 00:53:44;;;;;;;5.70;3.92;;;;;;;7.78;100.00;93727.56;5062744;28;20033;-61
2023/03/22 00:56:14;;;;;;;7.60;4.90;;;;;;;7.43;100.00;93731.31;5050840;28;20036;-62
2023/03/22 00:58:42;;;;;;;12.33;6.30;;;;;;;6.66;100.00;93729.38;5051560;28;20186;-64
2023/03/22 01:01:12;;;;;;;8.70;5.32;;;;;;;7.02;100.00;93734.66;5063553;28;20055;-62
2023/03/22 01:03:41;;;;;;;8.35;5.32;;;;;;;7.24;100.00;93743.50;5064004;28;20033;-64
2023/03/22 01:06:09;;;;;;;7.80;5.15;;;;;;;7.28;100.00;93740.78;5052903;28;20218;-63
2023/03/22 01:08:37;;;;;;;8.63;5.47;;;;;;;7.20;100.00;93737.28;5069634;28;20074;-65
2023/03/22 01:11:06;;;;;;;8.27;5.17;;;;;;;7.16;100.00;93736.53;5065024;28;20037;-63
2023/03/22 01:13:36;;;;;;;7.82;5.30;;;;;;;7.19;100.00;93722.09;5051288;28;20041;-63
2023/03/22 01:16:04;;;;;;;7.97;4.88;;;;;;;7.24;100.00;93718.94;5057259;28;20313;-64
2023/03/22 01:18:31;;;;;;;7.45;4.63;;;;;;;7.32;100.00;93719.69;5058956;28;20068;-62
2023/03/22 01:20:58;;;;;;;7.68;5.30;;;;;;;7.33;100.00;93715.78;5068029;28;20249;-63
2023/03/22 01:23:25;;;;;;;43.77;26.30;;;;;;;7.30;100.00;93711.13;5058473;28;20040;-64
2023/03/22 01:25:52;;;;;;;20.55;11.55;;;;;;;7.26;100.00;93715.81;5067925;28;20496;-61
2023/03/22 01:28:18;;;;;;;8.38;5.60;;;;;;;7.14;100.00;93706.94;5058974;28;20048;-61
2023/03/22 01:30:45;;;;;;;7.88;4.50;;;;;;;6.95;100.00;93713.66;5065415;28;20101;-61
2023/03/22 01:33:12;;;;;;;5.95;4.68;;;;;;;6.89;100.00;93709.00;5059487;28;20366;-65
2023/03/22 01:35:38;;;;;;;7.17;4.17;;;;;;;6.80;100.00;93714.88;5054087;28;20045;-62
2023/03/22 01:38:05;;;;;;;6.40;4.00;;;;;;;6.73;100.00;93704.78;5054170;28;20040;-61
2023/03/22 01:40:33;;;;;;;5.35;3.55;;;;;;;6.68;100.00;93704.41;5069980;28;20037;-61
2023/03/22 01:42:59;;;;;;;7.53;4.40;;;;;;;6.56;100.00;93708.34;5067508;28;20048;-63
2023/03/22 01:45:41;;;;;;;7.30;4.22;;;;;;;6.46;100.00;93692.81;5058921;28;20047;-62
2023/03/22 01:48:20;;;;;;;6.30;4.23;;;;;;;6.46;100.00;93695.53;5069450;28;20043;-61
2023/03/22 01:50:57;;;;;;;7.38;4.43;;;;;;;6.34;100.00;93700.25;5061783;28;20033;-61
2023/03/22 01:53:25;;;;;;;11.07;7.45;;;;;;;6.28;100.00;93693.66;5062903;28;20384;-61
2023/03/22 01:55:54;;;;;;;6.97;4.53;;;;;;;6.20;100.00;93692.88;5050339;28;20040;-61
2023/03/22 01:58:21;;;;;;;6.85;4.90;;;;;;;6.11;100.00;93691.72;5056793;28;20485;-61
2023/03/22 02:00:49;;;;;;;6.77;4.00;;;;;;;6.06;100.00;93686.69;5068041;28;20089;-61
2023/03/22 02:03:24;;;;;;;5.63;3.88;;;;;;;5.99;100.00;93682.78;5069453;28;20044;-61
2023/03/22 02:05:52;;;;;;;5.45;3.60;;;;;;;5.90;100.00;93687.09;5069984;28;20033;-63
2023/03/22 02:08:19;;;;;;;5.18;3.20;;;;;;;5.80;100.00;93694.84;5069276;28;20438;-65
2023/03/22 02:10:46;;;;;;;5.40;3.90;;;;;;;5.77;100.00;93689.41;5067095;28;20479;-62
2023/03/22 02:13:31;;;;;;;11.70;5.67;;;;;;;5.70;100.00;93683.97;5048381;28;20051;-61
2023/03/22 02:16:21;;;;;;;8.50;4.88;;;;;;;5.65;100.00;93678.91;5068187;28;20033;-61
2023/03/22 02:19:10;;;;;;;11.00;6.15;;;;;;;5.57;100.00;93676.22;5069299;28;20047;-61
2023/03/22 02:22:08;;;;;;;6.32;3.90;;;;;;;5.52;100.00;93671.16;5058356;28;20033;-63
2023/03/22 02:25:12;;;;;;;7.20;4.28;;;;;;;5.44;100.00;93666.09;5055613;28;20110;-61
2023/03/22 02:27:41;;;;;;;7.07;3.80;;;;;;;5.30;100.00;93675.03;5068851;28;21591;-61
2023/03/22 02:30:31;;;;;;;8.82;4.28;;;;;;;5.26;100.00;93671.53;5056207;28;20053;-63
2023/03/22 02:33:35;;;;;;;6.28;4.28;;;;;;;5.25;100.00;93669.97;5057436;28;20039;-61
2023/03/22 02:36:15;;;;;;;7.07;4.20;;;;;;;5.26;100.00;93675.03;5048779;28;20386;-62
2023/03/22 02:38:57;;;;;;;5.68;3.95;;;;;;;5.24;100.00;93671.91;5058685;28;20041;-62
2023/03/22 02:41:53;;;;;;;7.00;4.00;;;;;;;5.19;100.00;93673.09;5048682;28;21825;-64
2023/03/22 02:44:41;;;;;;;6.75;4.50;;;;;;;5.14;100.00;93675.41;5035505;28;20041;-66
2023/03/22 02:47:26;;;;;;;6.88;4.82;;;;;;;5.09;100.00;93673.84;5043891;28;20053;-63
2023/03/22 02:50:03;;;;;;;7.80;4.38;;;;;;;5.09;100.00;93682.00;5053922;28;20037;-62
2023/03/22 02:52:39;;;;;;;7.35;4.35;;;;;;;5.08;100.00;93680.44;5075299;28;20454;-65
2023/03/22 02:55:49;;;;;;;6.07;4.30;;;;;;;5.04;100.00;93684.31;5053996;28;20097;-62
2023/03/22 02:58:32;;;;;;;9.00;4.68;;;;;;;4.97;100.00;93671.47;5050026;28;20033;-60
2023/03/22 03:01:04;;;;;;;6.47;4.13;;;;;;;4.86;100.00;93674.19;5061706;28;20093;-60
2023/03/22 03:03:36;;;;;;;7.68;4.47;;;;;;;4.80;100.00;93671.03;5056260;28;20037;-59
2023/03/22 03:06:09;;;;;;;7.40;4.55;;;;;;;4.74;100.00;93671.81;5068757;28;20047;-63
2023/03/22 03:08:38;;;;;;;8.03;4.50;;;;;;;4.66;100.00;93679.16;5069121;28;20036;-61
2023/03/22 03:11:05;;;;;;;9.35;4.70;;;;;;;4.65;100.00;93677.63;5062755;28;20384;-60
2023/03/22 03:13:32;;;;;;;9.93;5.05;;;;;;;4.61;100.00;93676.84;5049237;28;20037;-62
2023/03/22 03:16:01;;;;;;;7.47;4.82;;;;;;;4.55;100.00;93676.41;5066893;28;20055;-60
2023/03/22 03:18:44;;;;;;;8.40;4.65;;;;;;;4.49;100.00;93677.19;5056935;28;20037;-61
2023/03/22 03:21:35;;;;;;;8.30;5.40;;;;;;;4.40;100.00;93677.50;5055905;28;20378;-60
2023/03/22 03:24:18;;;;;;;8.88;5.78;;;;;;;4.36;100.00;93666.63;5068339;28;20469;-60
2023/03/22 03:27:03;;;;;;;12.95;7.28;;;;;;;4.26;100.00;93672.78;5057631;28;20125;-63
2023/03/22 03:29:49;;;;;;;6.55;4.38;;;;;;;4.14;100.00;93673.91;5055529;28;20394;-62
2023/03/22 03:32:45;;;;;;;7.13;4.57;;;;;;;3.98;100.00;93674.22;5064607;28;20098;-62
2023/03/22 03:35:32;;;;;;;6.57;4.20;;;;;;;4.08;100.00;93675.41;5039517;28;20045;-64
2023/03/22 03:38:13;;;;;;;7.43;4.03;;;;;;;3.99;100.00;93683.16;5061074;28;20303;-62
2023/03/22 03:40:46;;;;;;;6.10;4.10;;;;;;;4.02;100.00;93676.16;5066022;28;20045;-61
2023/03/22 03:43:14;;;;;;;5.95;3.97;;;;;;;3.95;100.00;93672.25;5059903;28;20048;-60
2023/03/22 03:45:41;;;;;;;5.13;3.72;;;;;;;3.98;100.00;93678.84;5068551;28;20032;-61
2023/03/22 03:48:12;;;;;;;40.30;19.93;;;;;;;3.96;100.00;93673.03;5068350;28;20045;-61
2023/03/22 03:50:39;;;;;;;16.42;8.45;;;;;;;3.99;100.00;93675.00;5069750;28;20477;-62
2023/03/22 03:53:06;;;;;;;11.00;6.30;;;;;;;3.95;100.00;93682.34;5068161;28;20078;-61
2023/03/22 03:55:33;;;;;;;9.25;5.00;;;;;;;3.91;100.00;93678.81;5066338;28;20101;-63
2023/03/22 03:57:59;;;;;;;7.40;4.30;;;;;;;3.84;100.00;93682.25;5057119;28;20466;-61
2023/03/22 04:00:26;;;;;;;6.87;4.13;;;;;;;3.82;100.00;93684.56;5068551;28;20474;-61
2023/03/22 04:02:53;;;;;;;7.07;4.10;;;;;;;3.82;100.00;93687.28;5068438;28;20032;-63
2023/03/22 04:05:19;;;;;;;6.97;4.10;;;;;;;3.81;100.00;93685.75;5058256;28;20040;-60
2023/03/22 04:07:46;;;;;;;7.30;4.30;;;;;;;3.78;100.00;93695.44;5067061;28;20114;-61
2023/03/22 04:10:13;;;;;;;7.80;4.50;;;;;;;3.79;100.00;93685.34;5061160;28;20040;-64
2023/03/22 04:12:39;;;;;;;7.10;4.20;;;;;;;3.72;100.00;93696.13;5071862;28;20047;-62
2023/03/22 04:15:07;;;;;;;12.27;5.40;;;;;;;3.62;100.00;93694.91;5062208;28;20428;-61
2023/03/22 04:17:33;;;;;;;8.60;5.45;;;;;;;3.64;100.00;93695.31;5052086;28;20029;-64
2023/03/22 04:20:01;;;;;;;10.30;5.13;;;;;;;3.60;100.00;93692.59;5065355;28;20052;-62
2023/03/22 04:22:33;;;;;;;9.35;5.00;;;;;;;3.57;100.00;93693.31;5065008;28;20047;-61
2023/03/22 04:25:00;;;;;;;10.87;5.50;;;;;;;3.54;100.00;93691.38;5058069;28;20049;-63
2023/03/22 04:27:27;;;;;;;11.18;5.72;;;;;;;3.50;100.00;93687.06;5059927;28;20094;-61
2023/03/22 04:29:54;;;;;;;10.07;5.32;;;;;;;3.52;100.00;93693.69;5057186;28;20448;-61
2023/03/22 04:32:25;;;;;;;9.10;5.30;;;;;;;3.56;100.00;93694.50;5070705;28;20823;-63
2023/03/22 04:34:52;;;;;;;8.18;5.07;;;;;;;3.53;100.00;93691.75;5058227;28;20040;-60
2023/03/22 04:37:21;;;;;;;9.20;5.03;;;;;;;3.45;100.00;93692.84;5103835;28;20050;-60
2023/03/22 04:39:48;;;;;;;11.27;5.60;;;;;;;3.38;100.00;93696.25;5084506;28;20047;-60
2023/03/22 04:42:14;;;;;;;10.68;5.75;;;;;;;3.38;100.00;93694.34;5062208;28;20059;-61
2023/03/22 04:44:41;;;;;;;8.95;5.10;;;;;;;3.10;100.00;93694.88;5071300;28;20040;-65
2023/03/22 04:47:08;;;;;;;8.18;5.00;;;;;;;3.08;100.00;93688.25;5069698;28;20119;-63
2023/03/22 04:49:34;;;;;;;6.30;4.27;;;;;;;2.98;100.00;93703.28;5060373;28;20043;-61
2023/03/22 04:52:01;;;;;;;8.98;5.20;;;;;;;2.98;100.00;93701.34;5070550;28;20047;-60
2023/03/22 04:54:28;;;;;;;10.35;4.63;;;;;;;2.96;100.00;93700.16;5056282;28;20040;-62
2023/03/22 04:56:55;;;;;;;8.65;4.22;;;;;;;3.03;100.00;93692.09;5071359;28;20038;-63
2023/03/22 04:59:21;;;;;;;7.18;4.70;;;;;;;3.06;100.00;93699.50;5056703;28;20919;-61
2023/03/22 05:01:50;;;;;;;9.20;5.60;;;;;;;3.04;100.00;93693.66;5071213;28;20098;-60
2023/03/22 05:04:18;;;;;;;8.30;5.93;;;;;;;3.03;100.00;93692.09;5059607;28;20033;-63
2023/03/22 05:06:45;;;;;;;11.73;6.55;;;;;;;2.95;100.00;93696.66;5064356;28;20079;-60
2023/03/22 05:09:13;;;;;;;13.27;6.60;;;;;;;2.88;100.00;93696.59;5060623;28;20041;-60
2023/03/22 05:11:40;;;;;;;12.13;5.93;;;;;;;2.90;100.00;93691.59;5056336;28;20089;-60
2023/03/22 05:14:08;;;;;;;8.70;5.17;;;;;;;2.91;100.00;93695.06;5069344;28;20045;-61
2023/03/22 05:16:35;;;;;;;13.82;6.05;;;;;;;2.92;100.00;93689.28;5065678;28;20385;-61
2023/03/22 05:19:02;;;;;;;10.55;6.22;;;;;;;2.97;100.00;93688.94;5062924;28;20033;-62
2023/03/22 05:21:35;;;;;;;12.60;7.40;;;;;;;2.98;100.00;93687.03;5064740;28;20093;-61
2023/03/22 05:24:02;;;;;;;17.75;9.15;;;;;;;3.03;100.00;93688.59;5070007;28;20633;-61
2023/03/22 05:26:29;;;;;;;16.63;9.43;;;;;;;2.77;100.00;93691.06;5070442;28;20044;-62
2023/03/22 05:28:55;;;;;;;23.67;13.68;;;;;;;2.87;100.00;93694.25;5062411;28;20351;-63
2023/03/22 05:31:22;;;;;;;16.85;9.88;;;;;;;2.92;100.00;93688.50;5049345;28;20110;-62
2023/03/22 05:33:50;;;;;;;15.70;7.88;;;;;;;2.95;100.00;93693.94;5068701;28;20372;-64
2023/03/22 05:36:19;;;;;;;12.43;7.55;;;;;;;3.04;100.00;93687.44;5056991;28;20102;-61
2023/03/22 05:38:46;;;;;;;15.53;8.70;;;;;;;3.14;100.00;93700.31;5073403;28;20051;-60
2023/03/22 05:41:13;;;;;;;27.48;18.42;;;;;;;3.04;100.00;93696.38;5070085;28;20066;-60
2023/03/22 05:43:40;;;;;;;18.55;11.57;;;;;;;3.20;100.00;93696.13;5067915;28;20058;-60
2023/03/22 05:46:09;;;;;;;17.65;11.18;;;;;;;3.32;100.00;93690.44;5069674;28;20435;-61
2023/03/22 05:48:37;;;;;;;11.30;6.38;;;;;;;3.37;100.00;93687.34;5069694;28;20040;-61
2023/03/22 05:51:16;;;;;;;10.43;6.00;;;;;;;3.22;100.00;93685.69;5069839;28;20044;-65
2023/03/22 05:53:46;;;;;;;11.40;5.97;;;;;;;3.34;100.00;93679.19;5057849;28;20085;-62
2023/03/22 05:56:14;;;;;;;12.57;5.72;;;;;;;3.35;100.00;93676.09;5068912;28;20054;-62
2023/03/22 05:58:41;;;;;;;10.95;6.28;;;;;;;3.45;100.00;93680.06;5069838;28;20105;-62
2023/03/22 06:01:10;;;;;;;13.60;7.57;;;;;;;3.33;100.00;93685.78;5052686;28;20044;-65
2023/03/22 06:03:38;;;;;;;18.33;10.13;;;;;;;3.24;100.00;93679.88;5049767;28;20492;-62
2023/03/22 06:06:09;;;;;;;19.88;8.98;;;;;;;3.29;100.00;93682.25;5065811;28;20044;-64
2023/03/22 06:08:37;;;;;;;15.40;9.02;;;;;;;3.37;100.00;93687.34;5069779;28;20147;-62
2023/03/22 06:11:04;;;;;;;15.18;8.75;;;;;;;3.49;100.00;93688.22;5055483;28;20082;-63
2023/03/22 06:13:32;;;;;;;12.27;7.82;;;;;;;3.49;100.00;93693.66;5058686;28;20041;-63
2023/03/22 06:16:01;;;;;;;13.60;6.67;;;;;;;3.47;100.00;93685.13;5066980;28;20044;-66
2023/03/22 06:18:28;;;;;;;10.75;6.40;;;;;;;3.08;100.00;93690.97;5069213;28;20371;-64
2023/03/22 06:20:55;;;;;;;12.00;6.57;;;;;;;3.23;100.00;93691.88;5069142;28;20397;-58
2023/03/22 06:23:22;;;;;;;11.07;6.50;;;;;;;3.39;100.00;93686.97;5064809;28;20162;-65
2023/03/22 06:25:49;;;;;;;12.63;6.00;;;;;;;3.52;100.00;93690.97;5061264;28;20109;-63
2023/03/22 06:28:15;;;;;;;9.43;5.53;;;;;;;3.63;100.00;93685.63;5068592;28;20054;-61
2023/03/22 06:30:42;;;;;;;12.70;6.30;;;;;;;3.57;100.00;93700.69;5059161;28;20035;-61
2023/03/22 06:33:09;;;;;;;11.35;6.22;;;;;;;3.56;100.00;93693.69;5063658;28;20544;-62
2023/03/22 06:35:36;;;;;;;12.00;6.13;;;;;;;3.53;100.00;93694.47;5057954;28;20427;-62
2023/03/22 06:38:03;;;;;;;11.00;6.15;;;;;;;3.57;100.00;93692.56;5059488;28;20047;-66
2023/03/22 06:40:29;;;;;;;9.97;5.90;;;;;;;3.38;100.00;93688.13;5082509;28;20113;-61
2023/03/22 06:42:56;;;;;;;11.75;5.93;;;;;;;3.45;100.00;93690.13;5068482;28;20040;-59
2023/03/22 06:45:23;;;;;;;12.23;6.35;;;;;;;3.28;100.00;93705.88;5061509;28;20040;-61
2023/03/22 06:47:49;;;;;;;11.40;7.40;;;;;;;3.62;100.00;93696.84;5080297;28;20325;-62
2023/03/22 06:50:16;;;;;;;15.32;7.72;;;;;;;3.81;100.00;93699.31;5069648;28;20072;-61
2023/03/22 06:52:43;;;;;;;11.10;6.37;;;;;;;3.95;100.00;93690.50;5071367;28;20221;-64
2023/03/22 06:55:10;;;;;;;10.27;6.22;;;;;;;4.07;100.00;93692.88;5068315;28;20037;-61
2023/03/22 06:57:36;;;;;;;10.10;6.00;;;;;;;4.29;100.00;93688.34;5066322;28;20063;-61
2023/03/22 07:00:04;;;;;;;10.23;5.95;;;;;;;4.25;100.00;93687.56;5048677;28;20102;-62
2023/03/22 07:02:31;;;;;;;10.93;5.80;;;;;;;4.32;100.00;93689.50;5065429;28;20040;-61
2023/03/22 07:04:57;;;;;;;10.97;6.03;;;;;;;4.54;100.00;93696.59;5060189;28;20519;-65
2023/03/22 07:07:24;;;;;;;14.45;7.45;;;;;;;4.66;100.00;93694.69;5051338;28;20045;-63
2023/03/22 07:09:52;;;;;;;12.07;6.45;;;;;;;4.81;100.00;93696.31;5068687;28;20128;-60
2023/03/22 07:12:18;;;;;;;9.35;5.57;;;;;;;4.85;100.00;93688.16;5068356;28;20036;-60
2023/03/22 07:14:45;;;;;;;10.07;5.68;;;;;;;4.87;100.00;93693.97;5068771;28;20344;-61
2023/03/22 07:17:13;;;;;;;11.23;5.73;;;;;;;4.97;100.00;93685.06;5067845;28;20408;-60
2023/03/22 07:19:41;;;;;;;10.02;5.95;;;;;;;5.20;100.00;93688.22;5056031;28;20045;-61
2023/03/22 07:22:08;;;;;;;10.82;6.03;;;;;;;5.55;100.00;93675.81;5068374;28;20045;-61
2023/03/22 07:24:34;;;;;;;8.77;5.72;;;;;;;5.99;100.00;93682.78;5060827;28;20504;-61
2023/03/22 07:27:10;;;;;;;9.68;5.25;;;;;;;7.92;100.00;93674.75;5062516;28;20153;-61
2023/03/22 07:29:36;;;;;;;10.33;5.20;;;;;;;12.23;100.00;93669.41;5068646;28;20040;-62
2023/03/22 07:32:03;;;;;;;7.43;4.82;;;;;;;14.14;81.33;93671.00;5068317;28;20083;-63
2023/03/22 07:34:30;;;;;;;9.40;5.25;;;;;;;16.40;68.27;93668.22;5067391;28;20044;-61
2023/03/22 07:36:57;;;;;;;9.93;4.80;;;;;;;17.72;57.62;93656.06;5057498;28;20029;-62
2023/03/22 07:39:24;;;;;;;9.80;4.80;;;;;;;17.33;55.36;93655.13;5077880;28;20041;-62
2023/03/22 07:41:51;;;;;;;9.30;5.30;;;;;;;17.99;51.10;93654.47;5072778;28;20499;-61
2023/03/22 07:44:17;;;;;;;9.02;5.10;;;;;;;17.81;52.38;93658.06;5071807;28;20039;-64
2023/03/22 07:46:44;;;;;;;7.45;5.00;;;;;;;17.31;52.18;93646.50;5067059;28;20394;-62
2023/03/22 07:49:11;;;;;;;7.25;4.80;;;;;;;17.60;54.41;93648.72;5064329;28;20055;-61
2023/03/22 07:51:38;;;;;;;8.00;4.32;;;;;;;19.92;47.21;93643.75;5081791;28;20050;-65
2023/03/22 07:54:05;;;;;;;7.90;4.53;;;;;;;21.20;43.68;93645.13;5059526;28;20033;-61
2023/03/22 07:56:33;;;;;;;5.55;3.72;;;;;;;19.99;45.23;93642.56;5055705;28;20033;-61
2023/03/22 07:59:01;;;;;;;5.18;3.33;;;;;;;20.78;41.56;93645.69;5071738;28;20032;-62
2023/03/22 08:01:27;;;;;;;4.70;2.90;;;;;;;19.71;43.51;93642.91;5058885;28;20040;-62
2023/03/22 08:03:54;;;;;;;4.57;2.72;;;;;;;20.41;41.80;93644.19;5072262;28;20037;-64
2023/03/22 08:06:21;;;;;;;5.87;3.27;;;;;;;19.14;44.41;93651.53;5067408;28;20110;-62
2023/03/22 08:08:47;;;;;;;5.20;2.70;;;;;;;19.08;45.03;93653.44;5060322;28;20366;-62
2023/03/22 08:11:14;;;;;;;5.82;2.40;;;;;;;18.67;45.40;93647.53;5071465;28;20431;-62
2023/03/22 08:13:41;;;;;;;4.97;2.60;;;;;;;19.78;42.78;93652.09;5072222;28;20044;-63
2023/03/22 08:16:08;;;;;;;4.25;2.35;;;;;;;18.03;45.75;93652.28;5071515;28;20037;-62
2023/03/22 08:18:34;;;;;;;5.17;2.17;;;;;;;17.96;46.29;93658.16;5058271;28;20462;-66
2023/03/22 08:21:01;;;;;;;6.85;2.33;;;;;;;17.87;47.10;93655.44;5071368;28;20048;-63
2023/03/22 08:23:28;;;;;;;4.57;2.42;;;;;;;18.32;45.96;93645.31;5058625;28;20041;-62
2023/03/22 08:26:08;;;;;;;4.30;2.53;;;;;;;18.96;45.12;93646.91;5070451;28;20128;-65
2023/03/22 08:28:35;;;;;;;6.93;2.97;;;;;;;21.18;40.35;93655.25;5071673;28;20128;-63
2023/03/22 08:31:12;;;;;;;4.17;1.93;;;;;;;20.29;41.95;93648.06;5071024;28;20043;-62
2023/03/22 08:33:41;;;;;;;4.90;2.22;;;;;;;19.56;43.02;93656.06;5071670;28;20494;-62
2023/03/22 08:36:11;;;;;;;2.97;2.00;;;;;;;21.45;39.86;93660.41;5071015;28;20049;-61
2023/03/22 08:38:38;;;;;;;5.30;2.50;;;;;;;22.03;38.69;93651.97;5079167;28;20044;-63
2023/03/22 08:41:05;;;;;;;4.65;1.92;;;;;;;21.87;38.33;93650.63;5075582;28;20415;-64
2023/03/22 08:43:31;;;;;;;3.47;1.60;;;;;;;22.38;37.38;93648.19;5071603;28;20033;-64
2023/03/22 08:45:58;;;;;;;3.55;1.70;;;;;;;22.32;36.60;93659.31;5059425;28;20063;-63
2023/03/22 08:48:27;;;;;;;2.80;1.48;;;;;;;20.07;39.07;93649.28;5056385;28;20041;-62
2023/03/22 08:50:54;;;;;;;2.80;1.50;;;;;;;21.83;38.26;93652.06;5081062;28;20040;-64
2023/03/22 08:53:21;;;;;;;2.78;1.45;;;;;;;21.18;37.43;93650.44;5068794;28;21420;-62
2023/03/22 08:55:48;;;;;;;2.90;1.40;;;;;;;22.22;36.35;93646.78;5051497;28;20036;-63
2023/03/22 08:58:18;;;;;;;3.22;1.70;;;;;;;22.51;36.44;93648.50;5068711;28;20059;-63
2023/03/22 09:00:46;;;;;;;5.47;1.60;;;;;;;23.59;33.99;93640.50;5071267;28;20048;-62
2023/03/22 09:03:15;;;;;;;2.95;1.60;;;;;;;23.84;33.25;93641.53;5070675;28;21879;-66
2023/03/22 09:05:42;;;;;;;4.80;1.52;;;;;;;24.04;32.92;93634.91;5071046;28;20032;-63
2023/03/22 09:08:10;;;;;;;3.37;1.40;;;;;;;25.19;31.32;93635.63;5057182;28;20063;-63
2023/03/22 09:10:50;;;;;;;2.30;1.45;;;;;;;25.92;29.63;93642.88;5071130;28;20141;-62
2023/03/22 09:13:17;;;;;;;2.90;1.40;;;;;;;24.57;30.56;93640.72;5070380;28;20044;-63
2023/03/22 09:15:44;;;;;;;2.40;1.40;;;;;;;25.20;30.05;93642.78;5071142;28;20036;-63
2023/03/22 09:18:11;;;;;;;4.90;1.50;;;;;;;23.51;32.46;93638.19;5057002;28;20029;-63
2023/03/22 09:20:37;;;;;;;2.80;1.43;;;;;;;25.58;29.83;93636.72;5057780;28;20108;-63
2023/03/22 09:23:05;;;;;;;3.30;1.50;;;;;;;26.79;27.92;93625.44;5059205;28;20045;-63
2023/03/22 09:25:32;;;;;;;6.32;1.60;;;;;;;27.44;27.33;93623.63;5066924;28;20054;-65
2023/03/22 09:27:59;;;;;;;2.50;1.60;;;;;;;25.85;29.57;93634.97;5069968;28;20031;-63
2023/03/22 09:30:26;;;;;;;7.30;1.70;;;;;;;25.26;29.94;93626.69;5064837;28;20461;-63
2023/03/22 09:32:53;;;;;;;2.60;1.50;;;;;;;25.24;29.61;93617.25;5050582;28;20040;-63
2023/03/22 09:35:19;;;;;;;3.40;1.50;;;;;;;25.29;29.79;93622.84;5059318;28;20036;-66
2023/03/22 09:37:48;;;;;;;3.03;1.40;;;;;;;26.15;28.15;93611.75;5069761;28;20470;-63
2023/03/22 09:40:16;;;;;;;2.90;1.50;;;;;;;25.67;28.23;93619.53;5080637;28;20093;-63
2023/03/22 09:42:55;;;;;;;10.68;2.00;;;;;;;28.49;25.17;93608.34;5070252;28;20024;-65
2023/03/22 09:45:36;;;;;;;3.43;1.40;;;;;;;27.41;25.31;93605.72;5061896;28;20797;-66
2023/03/22 09:48:19;;;;;;;3.40;1.40;;;;;;;26.98;26.85;93600.13;5066599;28;20493;-63
2023/03/22 09:50:50;;;;;;;2.70;1.50;;;;;;;26.96;27.23;93608.34;5078489;28;20515;-63
2023/03/22 09:53:18;;;;;;;3.40;1.60;;;;;;;29.32;24.75;93602.91;5071531;28;20044;-63
2023/03/22 09:56:12;;;;;;;3.08;1.95;;;;;;;25.42;28.30;93599.78;5058526;28;20040;-62
2023/03/22 09:59:02;;;;;;;2.70;1.60;;;;;;;25.40;28.72;93602.34;5056013;28;21576;-62
2023/03/22 10:02:01;;;;;;;3.95;1.45;;;;;;;27.34;25.62;93594.31;5055379;28;20703;-62
2023/03/22 10:05:11;;;;;;;3.80;1.77;;;;;;;29.08;24.29;93584.91;5069042;28;21810;-63
2023/03/22 10:07:48;;;;;;;3.80;1.80;;;;;;;26.19;26.65;93581.28;5061350;28;20874;-62
2023/03/22 10:10:19;;;;;;;3.53;1.85;;;;;;;24.60;29.23;93589.94;5069341;28;20056;-62
2023/03/22 10:13:18;;;;;;;3.87;1.80;;;;;;;24.94;29.11;93581.38;5056339;28;20098;-64
2023/03/22 10:15:58;;;;;;;4.55;1.80;;;;;;;23.39;32.11;93577.06;5025999;28;21246;-61
2023/03/22 10:18:35;;;;;;;4.03;2.05;;;;;;;23.52;31.27;93564.09;5056266;28;20169;-62
2023/03/22 10:21:05;;;;;;;3.70;2.05;;;;;;;22.95;32.93;93576.44;5066343;28;20037;-64
2023/03/22 10:23:55;;;;;;;4.85;1.90;;;;;;;23.06;32.45;93573.72;5056618;28;20067;-62
2023/03/22 10:26:33;;;;;;;4.90;1.90;;;;;;;23.73;31.81;93563.84;5067248;28;20370;-62
2023/03/22 10:29:11;;;;;;;3.00;1.90;;;;;;;23.78;31.99;93563.06;5069173;28;20066;-65
2023/03/22 10:31:41;;;;;;;4.57;2.10;;;;;;;26.49;28.29;93558.72;5050441;28;20256;-64
2023/03/22 10:34:19;;;;;;;3.03;1.80;;;;;;;23.52;31.03;93552.91;5052027;28;20035;-62
2023/03/22 10:36:50;;;;;;;3.28;1.67;;;;;;;24.98;28.63;93561.47;5069422;28;20032;-62
2023/03/22 10:39:43;;;;;;;2.80;1.90;;;;;;;26.54;27.31;93559.94;5073886;28;20051;-62
2023/03/22 10:42:14;;;;;;;2.88;1.60;;;;;;;26.87;25.59;93556.75;5054010;28;20049;-64
2023/03/22 10:44:48;;;;;;;2.92;1.38;;;;;;;28.64;23.80;93554.19;5061731;28;20033;-62
2023/03/22 10:47:18;;;;;;;4.90;1.50;;;;;;;27.21;24.14;93555.53;5051086;28;20045;-62
2023/03/22 10:49:52;;;;;;;3.53;1.67;;;;;;;27.69;24.44;93548.16;5069147;28;20389;-63
2023/03/22 10:52:41;;;;;;;2.53;1.40;;;;;;;28.07;23.53;93548.03;5064485;28;20037;-62
2023/03/22 10:55:11;;;;;;;2.45;1.30;;;;;;;27.37;23.38;93545.34;5068670;28;20040;-64
2023/03/22 10:57:39;;;;;;;3.58;1.50;;;;;;;27.13;23.91;93546.94;5055397;28;20033;-63
2023/03/22 11:00:11;;;;;;;2.63;1.45;;;;;;;29.50;21.49;93550.34;5068652;28;20045;-64
2023/03/22 11:02:46;;;;;;;2.97;1.65;;;;;;;25.18;24.95;93538.63;5069451;28;20037;-63
2023/03/22 11:05:25;;;;;;;2.50;1.40;;;;;;;24.78;25.94;93545.75;5067392;28;20037;-62
2023/03/22 11:07:52;;;;;;;3.30;1.50;;;;;;;25.05;26.04;93544.06;5060228;28;20498;-62
2023/03/22 11:10:22;;;;;;;3.47;1.67;;;;;;;25.89;23.96;93535.00;5063392;28;20047;-62
2023/03/22 11:12:52;;;;;;;2.70;1.50;;;;;;;27.12;23.64;93533.38;5056894;28;20376;-62
2023/03/22 11:15:25;;;;;;;2.28;1.30;;;;;;;26.13;23.44;93530.72;5071078;28;20046;-62
2023/03/22 11:17:57;;;;;;;2.63;1.47;;;;;;;24.95;23.58;93535.22;5073152;28;20032;-62
2023/03/22 11:20:24;;;;;;;3.17;1.65;;;;;;;23.96;25.69;93533.00;5054259;28;21542;-62
2023/03/22 11:22:52;;;;;;;2.58;1.58;;;;;;;25.16;24.64;93529.19;5072884;28;20037;-61
2023/03/22 11:25:27;;;;;;;2.40;1.50;;;;;;;25.74;23.88;93529.03;5058921;28;20037;-61
2023/03/22 11:28:28;;;;;;;2.70;1.40;;;;;;;25.43;24.77;93531.06;5073081;28;20043;-64
2023/03/22 11:31:06;;;;;;;2.87;1.40;;;;;;;24.27;25.31;93543.13;5055962;28;20512;-61
2023/03/22 11:33:33;;;;;;;3.35;1.58;;;;;;;25.27;24.37;93520.72;5064458;28;20034;-61
2023/03/22 11:36:03;;;;;;;2.72;1.50;;;;;;;25.41;23.47;93530.06;5072313;28;20455;-62
2023/03/22 11:38:39;;;;;;;4.80;1.48;;;;;;;24.99;25.24;93518.06;5074742;28;20036;-62
2023/03/22 11:41:12;;;;;;;3.00;1.60;;;;;;;24.75;25.96;93515.91;5071777;28;20370;-62
2023/03/22 11:43:47;;;;;;;2.77;1.50;;;;;;;23.67;27.02;93510.59;5072749;28;20048;-64
2023/03/22 11:46:18;;;;;;;2.53;1.42;;;;;;;21.83;27.95;93518.78;5072010;28;20507;-61
2023/03/22 11:48:47;;;;;;;3.13;1.80;;;;;;;21.20;29.47;93516.00;5104946;28;20378;-62
2023/03/22 11:51:17;;;;;;;4.18;1.70;;;;;;;21.65;29.65;93505.19;5081697;28;20040;-63